Time;durP1;ratioP1;P1;durP2;ratioP2;P2;SDS_P1;SDS_P2;PMS_P1;PMS_P2;Temp;Humidity;BMP_temperature;BMP_pressure;BME280_temperature;BME280_humidity;BME280_pressure;Samples;Min_cycle;Max_cycle;Signal;HPM_P1;HPM_P2
2023/04/26 00:00:32;;;;;;;1.63;0.40;;;;;;;2.34;50.88;101620.56;4999537;28;20073;-69
2023/04/26 00:02:59;;;;;;;8.40;0.40;;;;;;;2.39;50.95;101619.75;5005231;28;20611;-69
2023/04/26 00:05:24;;;;;;;5.25;0.45;;;;;;;2.21;51.45;101623.91;5014492;28;20322;-68
2023/04/26 00:07:53;;;;;;;1.17;0.20;;;;;;;2.18;51.59;101617.91;4998283;28;20044;-69
2023/04/26 00:10:18;;;;;;;7.65;0.60;;;;;;;2.13;51.62;101618.72;5000215;28;20037;-69
2023/04/26 00:12:51;;;;;;;3.67;0.40;;;;;;;2.14;52.13;101617.00;4996879;28;20681;-69
2023/04/26 00:15:19;;;;;;;2.58;0.40;;;;;;;2.23;51.62;101617.06;5002456;28;20038;-68
2023/04/26 00:17:45;;;;;;;2.40;0.55;;;;;;;2.30;51.88;101618.81;4998113;28;20180;-70
2023/04/26 00:20:13;;;;;;;0.75;0.50;;;;;;;2.23;52.08;101614.47;5022099;28;20041;-70
2023/04/26 00:22:38;;;;;;;2.92;0.47;;;;;;;2.22;52.20;101610.19;5023069;28;20087;-70
2023/04/26 00:25:07;;;;;;;4.55;0.40;;;;;;;2.16;51.98;101610.13;5025133;28;20078;-69
2023/04/26 00:27:32;;;;;;;5.20;0.43;;;;;;;2.04;52.39;101617.78;5023804;28;20144;-67
2023/04/26 00:29:58;;;;;;;4.88;1.15;;;;;;;2.12;52.20;101611.81;5020976;28;20036;-68
2023/04/26 00:32:23;;;;;;;4.82;0.82;;;;;;;2.13;52.00;101617.84;5023709;28;20048;-69
2023/04/26 00:34:49;;;;;;;3.55;0.50;;;;;;;2.30;51.98;101613.66;5020867;28;20029;-68
2023/04/26 00:37:16;;;;;;;8.43;0.80;;;;;;;2.28;51.92;101615.38;5023221;28;20316;-66
2023/04/26 00:39:41;;;;;;;6.63;0.55;;;;;;;2.30;51.52;101623.97;5023347;28;20158;-76
2023/04/26 00:42:07;;;;;;;5.20;0.90;;;;;;;2.26;51.42;101611.91;5026697;28;20063;-76
2023/04/26 00:44:32;;;;;;;4.72;0.82;;;;;;;2.24;51.46;101613.63;5028342;28;20037;-75
2023/04/26 00:46:58;;;;;;;12.70;1.15;;;;;;;2.06;51.99;101611.78;5008825;28;20021;-76
2023/04/26 00:49:27;;;;;;;5.47;0.77;;;;;;;2.13;52.15;101615.25;5025779;28;20521;-76
2023/04/26 00:51:56;;;;;;;4.13;0.90;;;;;;;1.97;52.43;101616.00;5015241;28;20036;-76
2023/04/26 00:54:22;;;;;;;3.67;0.50;;;;;;;2.04;52.31;101612.63;5021174;28;20052;-75
2023/04/26 00:56:50;;;;;;;9.98;1.40;;;;;;;2.27;52.80;101610.22;5024626;28;20064;-74
2023/04/26 00:59:25;;;;;;;2.80;0.30;;;;;;;2.24;52.53;101616.22;5024881;28;20125;-75
2023/04/26 01:01:52;;;;;;;3.80;0.60;;;;;;;2.28;52.60;101622.25;5022523;28;21542;-70
2023/04/26 01:04:18;;;;;;;2.90;0.68;;;;;;;2.09;52.96;101629.88;5020505;28;20071;-71
2023/04/26 01:06:44;;;;;;;7.45;1.17;;;;;;;2.42;51.77;101622.31;5025165;28;20113;-70
2023/04/26 01:09:13;;;;;;;2.55;0.55;;;;;;;2.35;51.91;101619.72;4990008;28;20041;-72
2023/04/26 01:11:41;;;;;;;2.70;0.68;;;;;;;2.51;50.84;101617.22;5002583;28;20033;-72
2023/04/26 01:14:10;;;;;;;4.20;1.33;;;;;;;2.22;51.78;101619.63;5019989;28;20061;-72
2023/04/26 01:16:39;;;;;;;6.32;1.10;;;;;;;2.28;51.92;101620.53;5019833;28;20093;-73
2023/04/26 01:19:14;;;;;;;5.45;0.40;;;;;;;2.34;51.52;101630.88;5033898;28;20242;-71
2023/04/26 01:21:40;;;;;;;4.18;0.68;;;;;;;2.41;51.56;101631.78;5015914;28;20037;-69
2023/04/26 01:24:07;;;;;;;4.22;0.90;;;;;;;2.57;50.59;101632.75;5012765;28;20100;-73
2023/04/26 01:26:35;;;;;;;7.75;0.63;;;;;;;2.76;50.58;101633.72;5024310;28;20479;-73
2023/04/26 01:29:00;;;;;;;3.72;0.35;;;;;;;2.69;51.20;101635.41;5022214;28;20048;-74
2023/04/26 01:31:34;;;;;;;4.45;0.95;;;;;;;2.65;50.35;101637.97;5021987;28;20029;-73
2023/04/26 01:34:02;;;;;;;2.17;0.85;;;;;;;2.87;50.69;101641.50;5007369;28;20234;-74
2023/04/26 01:36:28;;;;;;;7.55;0.65;;;;;;;2.97;50.62;101632.94;5021175;28;20029;-72
2023/04/26 01:38:55;;;;;;;3.88;0.63;;;;;;;2.94;50.44;101630.34;5006946;28;20037;-73
2023/04/26 01:41:21;;;;;;;3.03;0.50;;;;;;;2.98;50.57;101634.66;5004402;28;20044;-73
2023/04/26 01:43:47;;;;;;;3.53;0.50;;;;;;;2.87;50.40;101636.34;5025270;28;20037;-73
2023/04/26 01:46:12;;;;;;;6.00;1.55;;;;;;;2.92;50.30;101639.81;5019500;28;20068;-72
2023/04/26 01:48:46;;;;;;;6.13;0.55;;;;;;;2.87;50.10;101620.84;5023597;28;20108;-73
2023/04/26 01:51:15;;;;;;;7.45;0.75;;;;;;;2.78;50.49;101619.09;5011828;28;20029;-73
2023/04/26 01:53:45;;;;;;;2.92;0.73;;;;;;;2.75;50.66;101619.91;5026750;28;20033;-73
2023/04/26 01:56:11;;;;;;;8.35;0.93;;;;;;;2.73;50.65;101624.25;5008224;28;20090;-72
2023/04/26 01:58:36;;;;;;;2.45;0.32;;;;;;;2.71;51.02;101625.94;5015256;28;20101;-73
2023/04/26 02:01:07;;;;;;;3.22;0.38;;;;;;;2.84;50.63;101626.00;5002968;28;20102;-71
2023/04/26 02:03:32;;;;;;;4.63;0.50;;;;;;;2.79;50.92;101632.84;5015935;28;20111;-72
2023/04/26 02:05:58;;;;;;;7.70;1.27;;;;;;;2.81;50.53;101631.16;5007306;28;20120;-73
2023/04/26 02:08:25;;;;;;;4.68;0.82;;;;;;;2.87;50.72;101616.53;5028945;28;20048;-74
2023/04/26 02:10:50;;;;;;;2.58;0.40;;;;;;;2.88;50.80;101633.75;5023266;28;20021;-71
2023/04/26 02:13:18;;;;;;;4.28;0.50;;;;;;;2.87;50.48;101626.03;5040228;28;20056;-74
2023/04/26 02:15:51;;;;;;;4.45;0.63;;;;;;;2.76;50.56;101624.25;5025816;28;20044;-72
2023/04/26 02:18:21;;;;;;;6.32;0.47;;;;;;;2.74;50.76;101618.22;5024856;28;20048;-72
2023/04/26 02:20:51;;;;;;;1.83;0.35;;;;;;;2.74;50.58;101614.75;5026634;28;20032;-72
2023/04/26 02:23:16;;;;;;;6.63;0.40;;;;;;;2.43;50.95;101624.06;5040941;28;20037;-75
2023/04/26 02:25:46;;;;;;;6.57;0.75;;;;;;;2.39;51.60;101627.47;5028025;28;20044;-75
2023/04/26 02:28:12;;;;;;;2.95;0.68;;;;;;;2.40;51.49;101624.03;5026111;28;20084;-72
2023/04/26 02:30:39;;;;;;;7.55;1.13;;;;;;;2.27;51.31;101613.66;5027385;28;20115;-72
2023/04/26 02:33:08;;;;;;;2.55;0.73;;;;;;;2.22;51.85;101617.94;5010197;28;20041;-73
2023/04/26 02:35:36;;;;;;;12.38;1.00;;;;;;;2.40;50.94;101613.72;5007331;28;20920;-75
2023/04/26 02:38:03;;;;;;;2.88;0.73;;;;;;;2.41;51.31;101610.28;5036142;28;20107;-75
2023/04/26 02:40:29;;;;;;;13.05;1.02;;;;;;;2.49;50.55;101618.94;5011140;28;20032;-75
2023/04/26 02:42:58;;;;;;;7.03;0.85;;;;;;;2.44;50.65;101620.63;5013081;28;20041;-73
2023/04/26 02:45:26;;;;;;;1.60;0.47;;;;;;;2.47;49.94;101620.66;5009414;28;20029;-80
2023/04/26 02:47:51;;;;;;;2.47;1.10;;;;;;;2.62;50.10;101620.72;5026955;28;20041;-77
2023/04/26 02:50:21;;;;;;;2.55;1.05;;;;;;;2.62;49.80;101615.56;5007557;28;20517;-78
2023/04/26 02:52:49;;;;;;;7.63;0.70;;;;;;;2.59;49.70;101615.53;4999881;28;20029;-73
2023/04/26 02:55:15;;;;;;;8.75;0.82;;;;;;;2.45;49.35;101612.03;5025109;28;20038;-77
2023/04/26 02:57:41;;;;;;;7.45;1.35;;;;;;;2.50;49.44;101612.91;5023443;28;20040;-74
2023/04/26 03:00:07;;;;;;;3.63;0.73;;;;;;;2.45;49.48;101612.03;5011368;28;20422;-75
2023/04/26 03:02:33;;;;;;;9.32;1.00;;;;;;;2.30;48.90;101618.81;5016496;28;20581;-70
2023/04/26 03:04:59;;;;;;;7.55;1.00;;;;;;;2.47;48.77;101618.06;5029516;28;20203;-69
2023/04/26 03:07:25;;;;;;;2.22;0.57;;;;;;;2.31;48.83;101617.97;5022763;28;20634;-73
2023/04/26 03:09:50;;;;;;;5.07;0.55;;;;;;;2.32;48.51;101616.25;5021747;28;20048;-71
2023/04/26 03:12:19;;;;;;;7.68;1.90;;;;;;;2.31;48.14;101619.66;5039828;28;20131;-69
2023/04/26 03:14:44;;;;;;;2.67;0.68;;;;;;;2.29;48.76;101614.53;5023286;28;20047;-69
2023/04/26 03:17:10;;;;;;;2.80;0.75;;;;;;;2.31;48.25;101605.09;5023278;28;20033;-69
2023/04/26 03:19:35;;;;;;;4.82;0.85;;;;;;;2.32;48.57;101606.78;5025604;28;20493;-70
2023/04/26 03:22:02;;;;;;;2.88;0.60;;;;;;;2.23;48.79;101617.06;5023162;28;20028;-69
2023/04/26 03:24:31;;;;;;;3.58;0.50;;;;;;;2.21;49.19;101617.91;5022671;28;20024;-70
2023/04/26 03:26:56;;;;;;;3.78;0.80;;;;;;;2.23;49.41;101611.03;5017421;28;20040;-70
2023/04/26 03:29:22;;;;;;;6.07;0.88;;;;;;;2.26;49.00;101611.91;5024319;28;20068;-69
2023/04/26 03:31:48;;;;;;;6.65;1.05;;;;;;;2.17;48.89;101618.72;5023238;28;20052;-70
2023/04/26 03:34:13;;;;;;;6.55;0.82;;;;;;;2.10;49.42;101615.25;5021744;28;20042;-70
2023/04/26 03:36:41;;;;;;;6.68;0.80;;;;;;;2.18;48.97;101613.59;5003583;28;20025;-70
2023/04/26 03:39:07;;;;;;;3.22;0.75;;;;;;;2.16;49.33;101609.28;5005202;28;20541;-69
2023/04/26 03:41:38;;;;;;;7.00;0.70;;;;;;;2.08;49.56;101611.78;5040471;28;20063;-70
2023/04/26 03:44:05;;;;;;;5.13;0.68;;;;;;;2.05;49.75;101606.63;5023777;28;20145;-70
2023/04/26 03:46:31;;;;;;;9.88;1.00;;;;;;;1.91;50.03;101604.81;5035674;28;20293;-72
2023/04/26 03:48:56;;;;;;;9.77;1.17;;;;;;;1.94;50.05;101604.81;5007833;28;20041;-69
2023/04/26 03:51:23;;;;;;;7.15;1.08;;;;;;;1.83;50.59;101611.59;5005855;28;20029;-75
2023/04/26 03:53:49;;;;;;;6.00;0.50;;;;;;;1.88;50.27;101612.50;5011897;28;20033;-71
2023/04/26 03:56:15;;;;;;;7.68;1.55;;;;;;;1.96;50.60;101603.97;5005978;28;20120;-72
2023/04/26 03:58:45;;;;;;;4.13;0.85;;;;;;;2.08;50.02;101611.78;4994529;28;20112;-71
2023/04/26 04:01:14;;;;;;;7.30;1.15;;;;;;;2.05;49.93;101611.78;4988612;28;20616;-70
2023/04/26 04:03:40;;;;;;;3.83;1.38;;;;;;;1.97;50.13;101609.13;5002137;28;20037;-73
2023/04/26 04:06:05;;;;;;;9.13;0.93;;;;;;;1.81;50.53;101613.31;5012403;28;20034;-70
2023/04/26 04:08:31;;;;;;;1.35;0.63;;;;;;;1.80;50.86;101621.91;5003572;28;20053;-70
2023/04/26 04:11:01;;;;;;;6.32;1.05;;;;;;;1.83;50.67;101615.91;4995050;28;20021;-71
2023/04/26 04:13:27;;;;;;;5.57;0.50;;;;;;;1.86;50.32;101618.50;5008355;28;20041;-68
2023/04/26 04:15:53;;;;;;;7.85;0.73;;;;;;;1.90;50.40;101618.53;5025703;28;20037;-68
2023/04/26 04:18:18;;;;;;;5.25;0.93;;;;;;;1.78;50.40;101615.88;5030312;28;20087;-68
2023/04/26 04:20:44;;;;;;;3.60;1.45;;;;;;;1.81;50.25;101618.47;5029872;28;20037;-70
2023/04/26 04:23:10;;;;;;;4.53;0.77;;;;;;;1.68;50.17;101624.34;5006782;28;20061;-72
2023/04/26 04:25:39;;;;;;;8.70;1.38;;;;;;;1.63;50.85;101618.31;5023347;28;20269;-70
2023/04/26 04:28:08;;;;;;;13.00;1.55;;;;;;;1.59;50.43;101617.41;5015930;28;20041;-73
2023/04/26 04:30:33;;;;;;;2.88;1.00;;;;;;;1.47;50.84;101628.47;5004697;28;20031;-71
2023/04/26 04:33:08;;;;;;;6.70;0.70;;;;;;;1.45;50.68;101629.31;5008268;28;20044;-75
2023/04/26 04:35:33;;;;;;;7.07;0.93;;;;;;;1.36;50.69;101626.59;5013805;28;20033;-78
2023/04/26 04:38:04;;;;;;;5.15;0.68;;;;;;;1.47;50.56;101622.44;5010215;28;20040;-77
2023/04/26 04:40:30;;;;;;;5.18;1.42;;;;;;;1.32;50.70;101618.81;5021476;28;20033;-73
2023/04/26 04:42:56;;;;;;;7.53;1.50;;;;;;;1.55;50.14;101630.25;5023873;28;20076;-72
2023/04/26 04:45:23;;;;;;;7.22;1.65;;;;;;;1.54;50.02;101628.53;5019942;28;20489;-72
2023/04/26 04:47:55;;;;;;;7.18;0.75;;;;;;;1.70;49.66;101635.53;5024410;28;20753;-71
2023/04/26 04:50:23;;;;;;;4.90;0.63;;;;;;;1.50;50.15;101633.63;5021200;28;20036;-72
2023/04/26 04:52:49;;;;;;;5.65;1.20;;;;;;;1.76;50.05;101635.59;5024584;28;20037;-72
2023/04/26 04:55:15;;;;;;;5.93;1.02;;;;;;;1.60;50.05;101624.28;5022580;28;20039;-73
2023/04/26 04:57:42;;;;;;;5.28;0.73;;;;;;;1.88;49.71;101625.38;5025720;28;20049;-72
2023/04/26 05:00:11;;;;;;;3.30;0.75;;;;;;;1.91;49.70;101622.00;5023367;28;20033;-72
2023/04/26 05:02:46;;;;;;;3.58;0.85;;;;;;;2.07;49.31;101625.56;5022208;28;20059;-72
2023/04/26 05:05:11;;;;;;;3.08;0.95;;;;;;;1.93;49.35;101626.31;5026142;28;20089;-77
2023/04/26 05:07:37;;;;;;;2.63;0.90;;;;;;;2.19;49.32;101627.34;5007003;28;20036;-74
2023/04/26 05:10:03;;;;;;;3.45;0.63;;;;;;;2.16;49.17;101635.94;5024876;28;20540;-74
2023/04/26 05:12:29;;;;;;;8.43;2.25;;;;;;;2.32;48.80;101629.16;5015214;28;20442;-73
2023/04/26 05:14:57;;;;;;;5.38;1.38;;;;;;;2.20;49.73;101635.09;5018994;28;20327;-74
2023/04/26 05:17:22;;;;;;;7.13;0.95;;;;;;;2.37;49.09;101632.63;5017508;28;20493;-73
2023/04/26 05:19:49;;;;;;;3.58;1.25;;;;;;;1.84;49.62;101639.13;5019638;28;20923;-73
2023/04/26 05:22:17;;;;;;;3.97;1.75;;;;;;;3.29;49.24;101637.34;5013451;28;20040;-76
2023/04/26 05:24:46;;;;;;;5.25;1.15;;;;;;;4.08;45.52;101636.59;5026505;28;20100;-76
2023/04/26 05:27:13;;;;;;;5.82;1.02;;;;;;;3.83;44.76;101634.84;5014476;28;20132;-74
2023/04/26 05:29:50;;;;;;;2.22;0.90;;;;;;;3.78;45.92;101640.91;5023377;28;20514;-75
2023/04/26 05:32:27;;;;;;;7.47;1.00;;;;;;;3.62;46.13;101656.38;5011511;28;20037;-77
2023/04/26 05:35:13;;;;;;;5.75;1.20;;;;;;;2.38;49.25;101672.19;5027874;28;20106;-77
2023/04/26 05:37:42;;;;;;;8.70;1.38;;;;;;;2.47;49.70;101672.25;5021307;28;20040;-77
2023/04/26 05:40:11;;;;;;;2.58;0.52;;;;;;;2.26;49.81;101668.66;5018960;28;20040;-75
2023/04/26 05:42:39;;;;;;;3.92;1.02;;;;;;;2.36;49.25;101661.88;5036284;28;20147;-76
2023/04/26 05:45:07;;;;;;;1.42;0.75;;;;;;;2.27;50.40;101660.09;5026707;28;20417;-74
2023/04/26 05:47:32;;;;;;;3.33;0.70;;;;;;;2.65;49.61;101662.03;5036570;28;20040;-73
2023/04/26 05:50:08;;;;;;;2.38;0.70;;;;;;;2.81;49.83;101649.22;5024695;28;20037;-75
2023/04/26 05:52:36;;;;;;;3.38;0.70;;;;;;;2.77;49.67;101662.09;5005019;28;20048;-75
2023/04/26 05:55:03;;;;;;;3.65;0.82;;;;;;;2.74;49.95;101666.41;5025763;28;20714;-76
2023/04/26 05:57:29;;;;;;;6.80;1.17;;;;;;;2.72;50.16;101657.78;5023999;28;20037;-76
2023/04/26 05:59:54;;;;;;;1.88;0.80;;;;;;;2.75;50.11;101647.47;5023916;28;20414;-76
2023/04/26 06:02:20;;;;;;;3.47;1.13;;;;;;;2.58;50.85;101655.13;5006652;28;20053;-77
2023/04/26 06:04:46;;;;;;;7.20;1.38;;;;;;;2.88;50.62;101654.41;5007878;28;20039;-77
2023/04/26 06:07:16;;;;;;;5.53;0.65;;;;;;;3.01;50.42;101647.59;5026237;28;20100;-78
2023/04/26 06:09:41;;;;;;;15.68;2.40;;;;;;;3.01;50.21;101649.31;5007714;28;20056;-75
2023/04/26 06:12:07;;;;;;;8.27;1.58;;;;;;;3.03;50.30;101648.44;5009194;28;20095;-75
2023/04/26 06:14:36;;;;;;;5.18;1.50;;;;;;;3.11;50.60;101653.63;5019100;28;20034;-75
2023/04/26 06:17:06;;;;;;;5.80;1.08;;;;;;;3.35;50.64;101660.63;5023887;28;20032;-75
2023/04/26 06:19:32;;;;;;;5.85;1.35;;;;;;;4.92;49.15;101647.63;5021434;28;20044;-76
2023/04/26 06:22:00;;;;;;;7.20;2.45;;;;;;;7.55;44.15;101648.69;5024894;28;20040;-75
2023/04/26 06:24:27;;;;;;;3.15;1.65;;;;;;;10.44;38.58;101645.31;5023795;28;20082;-77
2023/04/26 06:26:53;;;;;;;4.78;1.00;;;;;;;10.64;33.35;101648.22;5027392;28;20621;-78
2023/04/26 06:29:20;;;;;;;2.95;0.95;;;;;;;8.49;37.80;101650.56;5021031;28;20563;-78
2023/04/26 06:31:45;;;;;;;5.93;1.05;;;;;;;7.26;39.82;101649.91;5026459;28;20206;-76
2023/04/26 06:34:11;;;;;;;7.93;0.70;;;;;;;6.11;42.65;101653.81;5009911;28;20713;-77
2023/04/26 06:36:37;;;;;;;6.55;0.75;;;;;;;5.50;43.54;101651.66;5021388;28;20041;-74
2023/04/26 06:39:05;;;;;;;4.03;0.63;;;;;;;5.31;44.94;101651.78;5026430;28;20052;-72
2023/04/26 06:41:31;;;;;;;3.78;0.95;;;;;;;5.24;45.56;101663.06;5040544;28;20044;-74
2023/04/26 06:43:57;;;;;;;3.97;0.55;;;;;;;5.52;45.59;101653.38;5009320;28;20289;-72
2023/04/26 06:46:29;;;;;;;;;;;;;;;4.96;45.26;101662.31;5023595;28;20098;-71
2023/04/26 06:48:55;;;;;;;4.82;0.63;;;;;;;4.48;46.60;101671.91;5008436;28;19921;-71
2023/04/26 06:51:20;;;;;;;5.63;1.20;;;;;;;3.88;48.36;101671.94;5025002;28;20044;-72
2023/04/26 06:53:49;;;;;;;3.55;0.77;;;;;;;4.00;48.69;101675.38;5026774;28;20548;-76
2023/04/26 06:56:15;;;;;;;4.63;1.08;;;;;;;4.22;46.96;101667.63;5025718;28;20036;-77
2023/04/26 06:58:58;;;;;;;7.20;0.88;;;;;;;4.33;47.85;101668.47;5008135;28;20102;-78
2023/04/26 07:01:25;;;;;;;3.67;0.95;;;;;;;4.64;46.81;101668.41;5009993;28;20156;-76
2023/04/26 07:03:56;;;;;;;6.53;0.85;;;;;;;4.39;45.47;101670.19;5019270;28;20041;-75
2023/04/26 07:06:23;;;;;;;5.88;1.10;;;;;;;6.12;43.78;101670.22;5028149;28;20033;-75
2023/04/26 07:08:52;;;;;;;3.58;0.90;;;;;;;7.65;41.08;101665.88;5016052;28;20132;-76
2023/04/26 07:11:18;;;;;;;5.13;0.77;;;;;;;9.09;36.52;101664.19;5024929;28;20309;-75
2023/04/26 07:13:43;;;;;;;4.15;0.40;;;;;;;10.09;35.26;101670.59;5006366;28;20040;-75
2023/04/26 07:16:11;;;;;;;2.83;0.50;;;;;;;13.01;31.25;101658.91;5026886;28;20029;-74
2023/04/26 07:18:39;;;;;;;3.50;0.38;;;;;;;13.72;29.96;101664.03;5022037;28;20087;-74
2023/04/26 07:21:04;;;;;;;2.92;0.43;;;;;;;12.95;29.87;101661.75;5025919;28;20553;-73
2023/04/26 07:23:32;;;;;;;3.80;0.30;;;;;;;13.13;28.07;101665.44;5014550;28;20199;-73
2023/04/26 07:26:02;;;;;;;5.07;0.30;;;;;;;14.15;26.39;101672.75;5027347;28;20044;-74
2023/04/26 07:28:28;;;;;;;4.13;0.45;;;;;;;14.34;26.73;101664.91;5014140;28;20044;-74
2023/04/26 07:30:53;;;;;;;4.75;0.47;;;;;;;12.49;28.21;101669.50;5041489;28;20048;-77
2023/04/26 07:33:19;;;;;;;4.95;0.68;;;;;;;12.13;28.85;101682.09;5023692;28;20037;-75
2023/04/26 07:35:55;;;;;;;2.83;0.30;;;;;;;10.31;32.12;101689.19;5023026;28;20422;-76
2023/04/26 07:38:20;;;;;;;1.27;0.10;;;;;;;9.02;34.67;101688.69;5026319;28;20049;-76
2023/04/26 07:40:45;;;;;;;2.08;0.50;;;;;;;8.24;36.61;101688.38;5023100;28;20091;-72
2023/04/26 07:43:14;;;;;;;0.98;0.10;;;;;;;8.08;37.01;101692.97;5027279;28;20123;-71
2023/04/26 07:45:42;;;;;;;1.90;0.20;;;;;;;7.49;38.19;101690.38;5022836;28;20166;-72
2023/04/26 07:48:08;;;;;;;4.95;0.30;;;;;;;6.99;39.63;101681.47;5009402;28;20040;-73
2023/04/26 07:50:33;;;;;;;2.95;0.45;;;;;;;6.74;39.60;101684.38;5021753;28;20402;-73
2023/04/26 07:52:58;;;;;;;3.25;0.55;;;;;;;6.82;41.29;101687.75;5019385;28;20136;-72
2023/04/26 07:55:24;;;;;;;2.05;0.32;;;;;;;10.55;34.16;101679.84;5003565;28;20033;-72
2023/04/26 07:57:50;;;;;;;4.25;0.57;;;;;;;12.66;31.05;101673.28;5004792;28;20441;-72
2023/04/26 08:00:16;;;;;;;0.57;0.08;;;;;;;15.31;28.38;101671.16;5004344;28;20136;-73
2023/04/26 08:02:42;;;;;;;4.45;0.20;;;;;;;17.07;23.98;101668.34;5000282;28;20229;-72
2023/04/26 08:05:07;;;;;;;1.55;0.20;;;;;;;17.44;22.93;101656.59;5005246;28;20029;-73
2023/04/26 08:07:38;;;;;;;4.32;0.10;;;;;;;14.47;26.01;101675.81;4990473;28;20132;-74
2023/04/26 08:10:05;;;;;;;2.90;0.20;;;;;;;12.70;27.81;101677.53;4986441;28;20469;-72
2023/04/26 08:12:33;;;;;;;4.53;0.50;;;;;;;13.61;28.34;101674.97;5001808;28;20625;-74
2023/04/26 08:15:03;;;;;;;4.15;0.38;;;;;;;12.09;29.02;101680.50;5005746;28;21018;-73
2023/04/26 08:17:30;;;;;;;1.50;0.10;;;;;;;8.95;33.40;101682.72;4993482;28;20040;-72
2023/04/26 08:20:02;;;;;;;2.70;0.15;;;;;;;7.71;36.04;101684.00;5015906;28;20087;-73
2023/04/26 08:22:28;;;;;;;3.35;0.73;;;;;;;9.15;35.09;101687.53;5005361;28;20836;-72
2023/04/26 08:24:54;;;;;;;6.13;0.50;;;;;;;9.05;36.05;101699.03;5001969;28;20037;-72
2023/04/26 08:27:20;;;;;;;2.92;0.10;;;;;;;7.31;39.35;101705.34;4988597;28;20041;-73
2023/04/26 08:29:48;;;;;;;5.13;0.35;;;;;;;5.99;42.94;101710.97;4999469;28;20075;-72
2023/04/26 08:32:16;;;;;;;2.20;0.50;;;;;;;5.66;43.17;101725.91;5001870;28;20041;-72
2023/04/26 08:34:42;;;;;;;2.00;0.20;;;;;;;5.89;43.58;101720.56;5003902;28;20413;-72
2023/04/26 08:37:07;;;;;;;2.63;0.28;;;;;;;7.09;40.78;101714.31;5004390;28;20056;-72
2023/04/26 08:39:35;;;;;;;5.50;0.40;;;;;;;7.51;38.28;101722.41;5003961;28;20072;-73
2023/04/26 08:42:13;;;;;;;4.13;0.50;;;;;;;9.14;36.69;101714.50;4997958;28;20321;-72
2023/04/26 08:44:41;;;;;;;1.10;0.35;;;;;;;10.77;32.78;101711.50;5010481;28;20824;-74
2023/04/26 08:47:19;;;;;;;1.75;0.13;;;;;;;10.84;29.76;101720.91;5005541;28;20612;-72
2023/04/26 08:49:51;;;;;;;0.98;0.30;;;;;;;10.70;27.99;101714.31;5001331;28;20029;-71
2023/04/26 08:52:21;;;;;;;1.45;0.13;;;;;;;9.79;28.69;101720.06;5001850;28;20175;-72
2023/04/26 08:54:50;;;;;;;6.05;0.20;;;;;;;9.35;29.77;101714.06;4990792;28;20247;-72
2023/04/26 08:57:18;;;;;;;3.00;0.28;;;;;;;9.69;27.95;101728.97;4998840;28;20064;-73
2023/04/26 08:59:52;;;;;;;2.60;0.20;;;;;;;9.33;28.15;101721.06;4999999;28;20033;-72
2023/04/26 09:02:21;;;;;;;2.88;0.20;;;;;;;10.63;27.73;101717.09;5002543;28;20119;-72
2023/04/26 09:04:48;;;;;;;2.33;0.20;;;;;;;10.52;26.60;101715.66;4999057;28;20080;-73
2023/04/26 09:07:20;;;;;;;3.97;0.10;;;;;;;11.73;26.90;101712.22;5019764;28;20474;-73
2023/04/26 09:09:46;;;;;;;;;;;;;;;11.59;25.67;101719.63;5017833;28;20064;-74
2023/04/26 09:12:17;;;;;;;1.92;0.10;;;;;;;11.62;26.79;101709.91;5018978;28;20514;-73
2023/04/26 09:14:43;;;;;;;3.50;0.28;;;;;;;11.60;27.60;101721.34;5011003;28;20406;-72
2023/04/26 09:17:29;;;;;;;2.40;0.10;;;;;;;11.55;26.57;101720.59;5009881;28;20425;-72
2023/04/26 09:19:55;;;;;;;4.03;0.30;;;;;;;10.25;27.83;101727.69;5017996;28;20124;-72
2023/04/26 09:22:27;;;;;;;1.23;0.10;;;;;;;9.72;28.58;101726.28;5019409;28;20080;-74
2023/04/26 09:24:55;;;;;;;5.32;0.20;;;;;;;9.91;29.12;101724.13;5017471;28;20554;-72
2023/04/26 09:27:21;;;;;;;2.78;0.40;;;;;;;9.85;30.02;101726.03;5020103;28;20037;-72
2023/04/26 09:30:06;;;;;;;0.82;0.32;;;;;;;10.33;28.95;101734.44;5018209;28;20102;-72
2023/04/26 09:32:51;;;;;;;2.33;0.20;;;;;;;10.78;28.35;101735.88;5019034;28;20040;-71
2023/04/26 09:35:35;;;;;;;4.03;0.25;;;;;;;10.93;29.42;101739.84;5020444;28;20041;-72
2023/04/26 09:38:13;;;;;;;5.38;0.45;;;;;;;9.99;29.80;101743.09;4999560;28;20371;-71
2023/04/26 09:40:45;;;;;;;4.47;0.50;;;;;;;8.79;30.76;101755.16;4997286;28;20037;-72
2023/04/26 09:43:15;;;;;;;3.97;0.37;;;;;;;8.85;31.55;101743.75;5002094;28;20049;-72
2023/04/26 09:45:44;;;;;;;2.35;0.20;;;;;;;8.72;31.82;101750.97;4999692;28;20510;-71
2023/04/26 09:48:15;;;;;;;4.90;0.50;;;;;;;9.12;30.77;101747.56;4997371;28;20048;-75
2023/04/26 09:50:43;;;;;;;1.88;0.20;;;;;;;9.03;30.65;101750.34;4999850;28;20415;-72
2023/04/26 09:53:09;;;;;;;7.47;0.50;;;;;;;8.87;30.45;101737.59;5001567;28;20033;-71
2023/04/26 09:55:37;;;;;;;2.33;0.28;;;;;;;9.70;29.60;101743.75;4997221;28;20041;-71
2023/04/26 09:58:09;;;;;;;6.00;0.40;;;;;;;10.92;29.25;101739.00;4998648;28;20075;-74
2023/04/26 10:00:40;;;;;;;5.80;0.30;;;;;;;10.51;29.86;101756.63;4999245;28;20176;-71
2023/04/26 10:03:07;;;;;;;1.73;0.10;;;;;;;9.99;28.78;101747.44;5013100;28;20047;-73
2023/04/26 10:05:33;;;;;;;2.50;0.20;;;;;;;10.52;30.07;101747.88;5022216;28;20548;-75
2023/04/26 10:07:59;;;;;;;5.22;0.55;;;;;;;10.21;30.19;101747.78;5019652;28;20041;-73
2023/04/26 10:10:26;;;;;;;1.17;0.17;;;;;;;10.07;29.23;101745.53;5024966;28;20034;-73
2023/04/26 10:12:53;;;;;;;3.92;0.30;;;;;;;11.34;28.28;101738.69;5018965;28;20106;-73
2023/04/26 10:15:19;;;;;;;2.05;0.30;;;;;;;11.46;28.93;101747.91;5010475;28;20075;-74
2023/04/26 10:17:50;;;;;;;4.55;0.22;;;;;;;10.73;27.41;101745.63;5005972;28;20045;-74
2023/04/26 10:20:21;;;;;;;2.22;0.40;;;;;;;9.71;28.11;101737.63;5005899;28;20071;-74
2023/04/26 10:22:59;;;;;;;2.27;0.57;;;;;;;10.82;28.09;101745.41;5014461;28;20037;-73
2023/04/26 10:25:46;;;;;;;1.35;0.10;;;;;;;10.53;28.38;101744.38;5011935;28;20033;-73
2023/04/26 10:28:12;;;;;;;1.58;0.10;;;;;;;10.68;28.59;101742.25;4994933;28;20131;-73
2023/04/26 10:30:59;;;;;;;4.40;0.60;;;;;;;9.82;27.31;101749.63;4998648;28;20783;-76
2023/04/26 10:33:25;;;;;;;3.50;0.50;;;;;;;9.49;29.05;101741.59;4993553;28;20522;-75
2023/04/26 10:36:12;;;;;;;2.72;0.32;;;;;;;9.60;29.75;101739.59;4997936;28;20029;-74
2023/04/26 10:39:03;;;;;;;5.85;0.30;;;;;;;9.78;29.84;101744.41;5002776;28;20082;-74
2023/04/26 10:41:40;;;;;;;1.63;0.52;;;;;;;9.89;27.90;101746.81;5003998;28;20037;-75
2023/04/26 10:44:40;;;;;;;4.13;0.20;;;;;;;9.59;28.84;101750.97;5001240;28;20037;-74
2023/04/26 10:47:19;;;;;;;3.38;0.20;;;;;;;9.50;29.96;101738.09;5000343;28;20037;-76
2023/04/26 10:49:46;;;;;;;2.63;0.10;;;;;;;8.33;30.34;101750.72;5014048;28;20565;-73
2023/04/26 10:52:18;;;;;;;0.30;0.10;;;;;;;9.59;29.71;101750.97;5018679;28;20071;-72
2023/04/26 10:54:59;;;;;;;3.67;0.20;;;;;;;9.84;28.87;101732.16;5009232;28;20036;-75
2023/04/26 10:57:48;;;;;;;2.10;0.40;;;;;;;9.42;29.26;101740.03;5006177;28;20051;-72
2023/04/26 11:00:27;;;;;;;3.30;0.25;;;;;;;9.68;29.73;101734.19;5022069;28;20390;-75
2023/04/26 11:03:05;;;;;;;2.78;0.10;;;;;;;10.11;29.84;101731.50;5014959;28;20051;-74
2023/04/26 11:05:51;;;;;;;3.60;0.20;;;;;;;9.70;30.67;101741.13;5020578;28;20500;-74
2023/04/26 11:08:34;;;;;;;4.93;0.20;;;;;;;9.53;31.06;101731.06;5004800;28;20416;-75
2023/04/26 11:11:02;;;;;;;2.78;0.20;;;;;;;10.05;29.65;101730.78;5019233;28;20033;-74
2023/04/26 11:13:32;;;;;;;2.67;0.20;;;;;;;8.68;33.89;101739.69;5019546;28;20047;-74
2023/04/26 11:16:03;;;;;;;1.30;0.30;;;;;;;8.51;34.56;101739.97;5017920;28;20234;-75
2023/04/26 11:18:29;;;;;;;4.03;0.25;;;;;;;9.63;33.48;101738.69;4997193;28;20095;-74
2023/04/26 11:20:55;;;;;;;4.03;0.32;;;;;;;10.22;31.53;101741.69;5021684;28;20041;-74
2023/04/26 11:23:27;;;;;;;0.93;0.30;;;;;;;10.04;32.12;101739.53;5034782;28;20099;-74
2023/04/26 11:25:56;;;;;;;3.97;0.25;;;;;;;9.29;32.48;101729.81;5020101;28;20060;-75
2023/04/26 11:28:22;;;;;;;2.20;0.30;;;;;;;8.71;33.36;101747.47;5035370;28;20200;-74
2023/04/26 11:30:50;;;;;;;7.75;0.20;;;;;;;8.98;32.39;101743.50;5017226;28;20029;-75
2023/04/26 11:33:21;;;;;;;1.23;0.20;;;;;;;8.54;31.46;101744.31;4999177;28;20514;-74
2023/04/26 11:35:54;;;;;;;5.70;0.10;;;;;;;8.48;30.64;101749.59;4995613;28;20460;-75
2023/04/26 11:38:24;;;;;;;1.75;0.17;;;;;;;9.06;30.75;101745.09;4996353;28;20042;-75